Overview Statistics Trail Chart Weather Telemetry Raw packets
 

This is the latest recevied weather packets stored in our database for station/object IZ7EXI-13. If no packets are shown the sender has not sent any weather packets the latest 10 day(s).

<< 5 6 7 8 9 10 11 >>
Time Temp. Humidity Pressure Rain* Wind** Luminosity Snow
1788535466 31.67° C 52% 1020 hPa - - - -
1788535427 31.67° C 52% 1020 hPa - - - -
1788534562 31.67° C 49% 1020 hPa - - - -
1788534527 31.67° C 49% 1020 hPa - - - -
1788533664 32.22° C 46% 1020 hPa - - - -
1788533627 32.22° C 46% 1020 hPa - - - -
1788532726 32.22° C 43% 1020 hPa - - - -
1788531826 32.78° C 39% 1020 hPa - - - -
1788530926 33.33° C 40% 1020 hPa - - - -
1788530025 33.33° C 43% 1020.1 hPa - - - -
1788529125 32.78° C 46% 1020.2 hPa - - - -
1788528256 33.89° C 44% 1020.2 hPa - - - -
1788528225 33.89° C 44% 1020.2 hPa - - - -
1788527376 32.78° C 45% 1020.3 hPa - - - -
1788527363 32.78° C 45% 1020.3 hPa - - - -
1788527325 32.78° C 45% 1020.3 hPa - - - -
1788526477 32.78° C 44% 1020.4 hPa - - - -
1788526424 32.78° C 44% 1020.4 hPa - - - -
1788525548 32.22° C 48% 1020.5 hPa - - - -
1788525517 32.22° C 48% 1020.5 hPa - - - -
1788524651 32.78° C 49% 1020.4 hPa - - - -
1788524616 32.78° C 49% 1020.4 hPa - - - -
1788523716 32.78° C 48% 1020.6 hPa - - - -
1788522842 32.78° C 49% 1020.8 hPa - - - -
1788522816 32.78° C 49% 1020.8 hPa - - - -

* Rain since midnight (hover to see other rain measurements)
** Current wind speed in m/s (hover to see current wind gust speed)